Time;durP1;ratioP1;P1;durP2;ratioP2;P2;SDS_P1;SDS_P2;PMS_P1;PMS_P2;Temp;Humidity;BMP_temperature;BMP_pressure;BME280_temperature;BME280_humidity;BME280_pressure;Samples;Min_cycle;Max_cycle;Signal;HPM_P1;HPM_P2
2022/07/15 00:01:24;;;;;;;;;;;24.70;46.30;;;;;;4984247;28;19930;-79
2022/07/15 00:03:51;;;;;;;;;;;24.70;46.40;;;;;;4984032;28;20045;-79
2022/07/15 00:06:18;;;;;;;;;;;24.70;46.60;;;;;;4981170;28;19934;-79
2022/07/15 00:08:44;;;;;;;;;;;24.60;46.70;;;;;;4983695;28;19952;-78
2022/07/15 00:11:11;;;;;;;;;;;24.50;46.70;;;;;;4984666;28;20404;-79
2022/07/15 00:13:37;;;;;;;;;;;24.50;46.80;;;;;;4986754;28;19936;-79
2022/07/15 00:16:06;;;;;;;;;;;24.40;46.80;;;;;;4984688;28;20016;-79
2022/07/15 00:18:32;;;;;;;;;;;24.40;46.90;;;;;;4982606;28;19937;-78
2022/07/15 00:20:59;;;;;;;;;;;24.30;47.10;;;;;;4985028;28;19937;-79
2022/07/15 00:23:25;;;;;;;;;;;24.30;47.20;;;;;;4982517;28;20010;-79
2022/07/15 00:25:53;;;;;;;;;;;24.30;47.10;;;;;;4986792;28;19933;-79
2022/07/15 00:28:20;;;;;;;;;;;24.20;46.90;;;;;;4983455;28;20028;-79
2022/07/15 00:30:46;;;;;;;;;;;24.20;47.20;;;;;;4985502;28;19948;-79
2022/07/15 00:33:14;;;;;;;;;;;24.10;47.10;;;;;;4984134;28;19941;-78
2022/07/15 00:35:41;;;;;;;;;;;24.10;47.40;;;;;;4986612;28;19930;-78
2022/07/15 00:38:08;;;;;;;;;;;24.00;47.50;;;;;;4980641;28;19929;-79
2022/07/15 00:40:39;;;;;;;;;;;24.00;47.60;;;;;;4981084;28;19957;-78
2022/07/15 00:43:06;;;;;;;;;;;23.90;47.70;;;;;;4986720;28;20334;-79
2022/07/15 00:45:32;;;;;;;;;;;23.90;47.70;;;;;;4977564;28;19960;-79
2022/07/15 00:47:59;;;;;;;;;;;23.80;47.50;;;;;;4982940;28;20024;-78
2022/07/15 00:50:28;;;;;;;;;;;23.80;47.80;;;;;;4979774;28;19982;-79
2022/07/15 00:52:56;;;;;;;;;;;23.80;47.80;;;;;;4981101;28;19930;-79
2022/07/15 00:55:23;;;;;;;;;;;23.70;47.80;;;;;;4978275;28;20357;-79
2022/07/15 00:57:50;;;;;;;;;;;23.70;48.10;;;;;;4982081;28;20712;-78
2022/07/15 01:00:17;;;;;;;;;;;23.60;48.10;;;;;;4980105;28;19929;-79
2022/07/15 01:02:49;;;;;;;;;;;23.60;48.20;;;;;;4983511;28;19934;-79
2022/07/15 01:05:16;;;;;;;;;;;23.50;48.20;;;;;;4980156;28;19969;-78
2022/07/15 01:07:44;;;;;;;;;;;23.50;48.30;;;;;;4982658;28;19941;-79
2022/07/15 01:10:11;;;;;;;;;;;23.40;48.20;;;;;;4981402;28;19937;-79
2022/07/15 01:12:38;;;;;;;;;;;23.40;48.60;;;;;;4983259;28;19933;-79
2022/07/15 01:15:05;;;;;;;;;;;23.40;48.90;;;;;;4981747;28;19934;-78
2022/07/15 01:17:32;;;;;;;;;;;23.30;49.20;;;;;;4984510;28;19937;-78
2022/07/15 01:19:58;;;;;;;;;;;23.30;49.40;;;;;;4985133;28;19941;-78
2022/07/15 01:22:26;;;;;;;;;;;23.30;49.50;;;;;;4982913;28;20839;-79
2022/07/15 01:24:53;;;;;;;;;;;23.20;49.30;;;;;;4985541;28;19972;-79
2022/07/15 01:27:20;;;;;;;;;;;23.20;49.50;;;;;;4983951;28;19929;-79
2022/07/15 01:29:47;;;;;;;;;;;23.10;49.50;;;;;;4982120;28;19934;-79
2022/07/15 01:32:13;;;;;;;;;;;23.10;49.50;;;;;;4981557;28;19970;-79
2022/07/15 01:34:40;;;;;;;;;;;23.00;49.30;;;;;;4980005;28;19938;-79
2022/07/15 01:37:07;;;;;;;;;;;23.00;49.50;;;;;;4980900;28;19940;-76
2022/07/15 01:39:35;;;;;;;;;;;22.90;49.40;;;;;;4981711;28;20561;-79
2022/07/15 01:42:01;;;;;;;;;;;22.90;49.40;;;;;;4981930;28;20256;-79
2022/07/15 01:44:28;;;;;;;;;;;22.80;49.50;;;;;;4979239;28;20515;-79
2022/07/15 01:46:54;;;;;;;;;;;22.80;49.40;;;;;;4982591;28;19940;-78
2022/07/15 01:49:25;;;;;;;;;;;22.70;50.00;;;;;;4983009;28;19930;-79
2022/07/15 01:51:53;;;;;;;;;;;22.70;49.30;;;;;;4981986;28;19926;-79
2022/07/15 01:54:20;;;;;;;;;;;22.70;49.40;;;;;;4981769;28;20020;-77
2022/07/15 01:56:48;;;;;;;;;;;22.60;49.50;;;;;;4977707;28;19934;-79
2022/07/15 01:59:15;;;;;;;;;;;22.60;49.50;;;;;;4980401;28;19930;-78
2022/07/15 02:01:42;;;;;;;;;;;22.50;49.50;;;;;;4980634;28;19930;-79
2022/07/15 02:04:08;;;;;;;;;;;22.50;49.60;;;;;;4983782;28;19930;-78
2022/07/15 02:06:35;;;;;;;;;;;22.50;49.60;;;;;;4979752;28;19933;-78
2022/07/15 02:09:02;;;;;;;;;;;22.40;49.60;;;;;;4984832;28;20666;-77
2022/07/15 02:11:28;;;;;;;;;;;22.40;49.70;;;;;;4982131;28;19934;-79
2022/07/15 02:13:59;;;;;;;;;;;22.30;49.80;;;;;;4978772;28;21679;-79
2022/07/15 02:16:25;;;;;;;;;;;22.40;49.80;;;;;;4978205;28;19930;-79
2022/07/15 02:18:52;;;;;;;;;;;22.30;50.00;;;;;;4979835;28;19930;-79
2022/07/15 02:21:19;;;;;;;;;;;22.20;49.90;;;;;;4983271;28;20011;-79
2022/07/15 02:23:45;;;;;;;;;;;22.20;50.10;;;;;;4983933;28;20649;-76
2022/07/15 02:26:12;;;;;;;;;;;22.10;50.00;;;;;;4978482;28;19930;-78
2022/07/15 02:28:39;;;;;;;;;;;22.10;50.20;;;;;;4978716;28;20392;-79
2022/07/15 02:31:07;;;;;;;;;;;22.10;50.20;;;;;;4981393;28;20275;-78
2022/07/15 02:33:33;;;;;;;;;;;22.00;50.20;;;;;;4980066;28;19934;-78
2022/07/15 02:36:00;;;;;;;;;;;22.00;50.30;;;;;;4981443;28;19933;-78
2022/07/15 02:38:27;;;;;;;;;;;21.90;50.40;;;;;;4980673;28;19930;-78
2022/07/15 02:40:53;;;;;;;;;;;21.90;50.40;;;;;;4981283;28;20552;-78
2022/07/15 02:43:21;;;;;;;;;;;21.90;50.50;;;;;;4975626;28;19937;-78
2022/07/15 02:45:48;;;;;;;;;;;21.80;50.50;;;;;;4982461;28;20361;-79
2022/07/15 02:48:16;;;;;;;;;;;21.80;50.60;;;;;;4980658;28;19926;-78
2022/07/15 02:50:42;;;;;;;;;;;21.80;50.50;;;;;;4982732;28;19961;-79
2022/07/15 02:53:09;;;;;;;;;;;21.70;50.70;;;;;;4977754;28;22021;-78
2022/07/15 02:55:36;;;;;;;;;;;21.70;50.70;;;;;;4979103;28;20668;-79
2022/07/15 02:58:03;;;;;;;;;;;21.60;50.70;;;;;;4980325;28;20006;-78
2022/07/15 03:00:30;;;;;;;;;;;21.60;50.70;;;;;;4981575;28;19961;-79
2022/07/15 03:02:56;;;;;;;;;;;21.60;50.80;;;;;;4982283;28;19930;-79
2022/07/15 03:05:24;;;;;;;;;;;21.50;50.90;;;;;;4979052;28;20032;-78
2022/07/15 03:07:51;;;;;;;;;;;21.60;51.00;;;;;;4979226;28;19930;-79
2022/07/15 03:10:18;;;;;;;;;;;21.50;51.00;;;;;;4982772;28;19933;-79
2022/07/15 03:12:44;;;;;;;;;;;21.50;51.00;;;;;;4984070;28;19940;-79
2022/07/15 03:15:11;;;;;;;;;;;21.40;51.10;;;;;;4983384;28;19930;-78
2022/07/15 03:17:38;;;;;;;;;;;21.40;51.10;;;;;;4981617;28;20016;-79
2022/07/15 03:20:05;;;;;;;;;;;21.30;51.10;;;;;;4979534;28;19965;-78
2022/07/15 03:22:33;;;;;;;;;;;21.30;51.30;;;;;;4977976;28;19934;-78
2022/07/15 03:25:00;;;;;;;;;;;21.30;51.40;;;;;;4984027;28;19937;-78
2022/07/15 03:27:26;;;;;;;;;;;21.20;51.40;;;;;;4982074;28;19930;-78
2022/07/15 03:29:53;;;;;;;;;;;21.20;52.10;;;;;;4981235;28;19929;-78
2022/07/15 03:32:20;;;;;;;;;;;21.20;51.40;;;;;;4980992;28;19929;-78
2022/07/15 03:34:48;;;;;;;;;;;21.20;51.50;;;;;;4978517;28;19929;-78
2022/07/15 03:37:15;;;;;;;;;;;21.10;51.60;;;;;;4979199;28;20540;-77
2022/07/15 03:39:43;;;;;;;;;;;21.10;51.70;;;;;;4980893;28;19942;-78
2022/07/15 03:42:10;;;;;;;;;;;21.10;51.80;;;;;;4981422;28;19929;-78
2022/07/15 03:44:36;;;;;;;;;;;21.00;51.50;;;;;;4980871;28;19941;-78
2022/07/15 03:47:03;;;;;;;;;;;21.00;51.80;;;;;;4982190;28;19937;-78
2022/07/15 03:49:29;;;;;;;;;;;20.90;51.90;;;;;;4979959;28;19930;-79
2022/07/15 03:51:56;;;;;;;;;;;20.90;52.00;;;;;;4980431;28;19929;-78
2022/07/15 03:54:23;;;;;;;;;;;20.90;52.00;;;;;;4982041;28;21630;-78
2022/07/15 03:56:51;;;;;;;;;;;20.80;52.10;;;;;;4980356;28;19933;-78
2022/07/15 03:59:20;;;;;;;;;;;20.80;52.30;;;;;;4980742;28;19930;-78
2022/07/15 04:01:48;;;;;;;;;;;20.80;52.20;;;;;;4977289;28;19936;-78
2022/07/15 04:04:15;;;;;;;;;;;20.70;52.40;;;;;;4976983;28;19940;-78
2022/07/15 04:06:41;;;;;;;;;;;20.70;52.50;;;;;;4979221;28;19930;-78
2022/07/15 04:09:10;;;;;;;;;;;20.70;52.60;;;;;;4980463;28;19934;-78
2022/07/15 04:11:37;;;;;;;;;;;20.70;52.60;;;;;;4982747;28;20379;-77
2022/07/15 04:14:05;;;;;;;;;;;20.60;52.80;;;;;;4979997;28;19944;-78
2022/07/15 04:16:32;;;;;;;;;;;20.60;52.80;;;;;;4981971;28;19930;-78
2022/07/15 04:18:59;;;;;;;;;;;20.50;52.90;;;;;;4983511;28;19930;-78
2022/07/15 04:21:25;;;;;;;;;;;20.50;52.90;;;;;;4980959;28;19929;-78
2022/07/15 04:23:52;;;;;;;;;;;20.50;52.90;;;;;;4983851;28;19930;-79
2022/07/15 04:26:19;;;;;;;;;;;20.40;53.00;;;;;;4984121;28;19934;-78
2022/07/15 04:28:46;;;;;;;;;;;20.50;53.20;;;;;;4981900;28;20297;-79
2022/07/15 04:31:14;;;;;;;;;;;20.40;53.40;;;;;;4986088;28;19933;-78
2022/07/15 04:33:41;;;;;;;;;;;20.40;53.40;;;;;;4981976;28;19933;-78
2022/07/15 04:36:08;;;;;;;;;;;20.30;53.40;;;;;;4986716;28;19930;-78
2022/07/15 04:38:34;;;;;;;;;;;20.40;53.50;;;;;;4987115;28;19934;-78
2022/07/15 04:41:01;;;;;;;;;;;20.40;53.40;;;;;;4985922;28;19940;-78
2022/07/15 04:43:28;;;;;;;;;;;20.30;53.70;;;;;;4981191;28;19930;-79
2022/07/15 04:45:54;;;;;;;;;;;20.30;53.60;;;;;;4981068;28;19933;-78
2022/07/15 04:51:06;;;;;;;;;;;20.20;53.80;;;;;;4987778;28;20334;-78
2022/07/15 04:53:33;;;;;;;;;;;20.20;53.80;;;;;;4981348;28;19930;-78
2022/07/15 04:56:00;;;;;;;;;;;20.20;54.40;;;;;;4980938;28;19969;-78
2022/07/15 04:58:26;;;;;;;;;;;20.20;54.00;;;;;;4984730;28;19940;-78
2022/07/15 05:00:53;;;;;;;;;;;20.10;54.00;;;;;;4982179;28;19930;-78
2022/07/15 05:03:19;;;;;;;;;;;20.10;54.20;;;;;;4977364;28;19926;-79
2022/07/15 05:05:47;;;;;;;;;;;20.10;54.30;;;;;;4984073;28;19933;-78
2022/07/15 05:08:14;;;;;;;;;;;20.10;54.30;;;;;;4984569;28;19961;-79
2022/07/15 05:10:41;;;;;;;;;;;20.10;54.30;;;;;;4985341;28;19940;-78
2022/07/15 05:13:07;;;;;;;;;;;20.10;54.30;;;;;;4984861;28;19930;-78
2022/07/15 05:15:35;;;;;;;;;;;20.00;54.40;;;;;;4979774;28;19930;-78
2022/07/15 05:18:01;;;;;;;;;;;20.10;54.40;;;;;;4980188;28;19929;-78
2022/07/15 05:20:28;;;;;;;;;;;20.00;54.50;;;;;;4983395;28;19930;-78
2022/07/15 05:22:56;;;;;;;;;;;20.00;54.60;;;;;;4984097;28;19936;-78
2022/07/15 05:25:23;;;;;;;;;;;20.00;54.70;;;;;;4984910;28;19949;-78
2022/07/15 05:27:51;;;;;;;;;;;20.00;54.70;;;;;;4984100;28;19934;-78
2022/07/15 05:30:18;;;;;;;;;;;20.00;54.80;;;;;;4983708;28;19930;-78
2022/07/15 05:32:44;;;;;;;;;;;20.00;54.80;;;;;;4985927;28;19930;-79
2022/07/15 05:35:13;;;;;;;;;;;19.90;54.80;;;;;;4984334;28;19937;-78
2022/07/15 05:37:39;;;;;;;;;;;20.00;54.80;;;;;;4979487;28;19930;-78
2022/07/15 05:40:08;;;;;;;;;;;19.90;54.90;;;;;;4979420;28;19930;-79
2022/07/15 05:42:35;;;;;;;;;;;20.00;55.00;;;;;;4982254;28;21424;-78
2022/07/15 05:45:02;;;;;;;;;;;20.00;55.10;;;;;;4983162;28;19934;-78
2022/07/15 05:47:29;;;;;;;;;;;19.90;55.00;;;;;;4980934;28;19933;-78
2022/07/15 05:49:55;;;;;;;;;;;19.90;55.00;;;;;;4978785;28;20540;-77
2022/07/15 05:52:22;;;;;;;;;;;19.90;54.90;;;;;;4980843;28;19930;-78
2022/07/15 05:54:48;;;;;;;;;;;19.90;54.90;;;;;;4983800;28;19940;-78
2022/07/15 05:57:16;;;;;;;;;;;19.90;54.90;;;;;;4985720;28;19930;-78
2022/07/15 05:59:43;;;;;;;;;;;20.00;54.80;;;;;;4983116;28;19937;-78
2022/07/15 06:02:10;;;;;;;;;;;19.90;54.80;;;;;;4980621;28;20457;-77
2022/07/15 06:04:37;;;;;;;;;;;20.00;54.60;;;;;;4981412;28;19937;-78
2022/07/15 06:07:03;;;;;;;;;;;20.00;54.60;;;;;;4983593;28;19933;-77
2022/07/15 06:09:30;;;;;;;;;;;20.00;54.60;;;;;;4984371;28;19941;-77
2022/07/15 06:11:57;;;;;;;;;;;20.00;54.50;;;;;;4980034;28;19953;-77
2022/07/15 06:14:25;;;;;;;;;;;20.00;54.50;;;;;;4980412;28;20649;-77
2022/07/15 06:16:51;;;;;;;;;;;19.90;54.40;;;;;;4981807;28;19976;-77
2022/07/15 06:19:18;;;;;;;;;;;20.00;54.30;;;;;;4980424;28;19929;-77
2022/07/15 06:21:44;;;;;;;;;;;20.00;54.20;;;;;;4976696;28;19940;-77
2022/07/15 06:24:11;;;;;;;;;;;19.90;54.00;;;;;;4982506;28;19929;-78
2022/07/15 06:26:39;;;;;;;;;;;20.00;54.00;;;;;;4984068;28;19996;-77
2022/07/15 06:29:06;;;;;;;;;;;20.00;53.90;;;;;;4982947;28;20058;-78
2022/07/15 06:31:33;;;;;;;;;;;20.00;54.50;;;;;;4982192;28;19941;-78
2022/07/15 06:34:00;;;;;;;;;;;20.00;53.90;;;;;;4980271;28;20340;-77
2022/07/15 06:36:27;;;;;;;;;;;20.10;54.10;;;;;;4981205;28;19933;-77
2022/07/15 06:38:54;;;;;;;;;;;20.00;53.90;;;;;;4982688;28;20309;-77
2022/07/15 06:41:22;;;;;;;;;;;20.00;53.90;;;;;;4982582;28;19934;-78
2022/07/15 06:43:49;;;;;;;;;;;20.10;54.00;;;;;;4983149;28;20308;-78
2022/07/15 06:46:15;;;;;;;;;;;20.10;54.10;;;;;;4981450;28;20422;-78
2022/07/15 06:48:43;;;;;;;;;;;20.00;53.90;;;;;;4982734;28;19937;-78
2022/07/15 06:51:10;;;;;;;;;;;20.00;53.80;;;;;;4980468;28;19933;-78
2022/07/15 06:53:37;;;;;;;;;;;20.10;53.70;;;;;;4980798;28;19936;-78
2022/07/15 06:56:05;;;;;;;;;;;20.10;53.70;;;;;;4981190;28;19941;-78
2022/07/15 06:58:32;;;;;;;;;;;20.10;53.70;;;;;;4983640;28;19938;-78
2022/07/15 07:00:59;;;;;;;;;;;20.10;53.60;;;;;;4979701;28;20332;-78
2022/07/15 07:03:26;;;;;;;;;;;20.10;53.80;;;;;;4982157;28;19934;-78
2022/07/15 07:05:54;;;;;;;;;;;20.10;53.60;;;;;;4982224;28;20318;-78
2022/07/15 07:08:23;;;;;;;;;;;20.20;53.70;;;;;;4979314;28;19936;-78
2022/07/15 07:10:49;;;;;;;;;;;20.10;53.60;;;;;;4982790;28;19934;-78
2022/07/15 07:13:16;;;;;;;;;;;20.20;53.60;;;;;;4979768;28;19937;-78
2022/07/15 07:15:42;;;;;;;;;;;20.20;53.50;;;;;;4979414;28;20506;-78
2022/07/15 07:18:09;;;;;;;;;;;20.20;53.50;;;;;;4978661;28;19940;-78
2022/07/15 07:20:37;;;;;;;;;;;20.20;53.30;;;;;;4985213;28;20417;-78
2022/07/15 07:23:05;;;;;;;;;;;20.30;53.30;;;;;;4975160;28;19926;-77
2022/07/15 07:25:31;;;;;;;;;;;20.30;53.30;;;;;;4976208;28;19929;-78
2022/07/15 07:28:00;;;;;;;;;;;20.30;53.20;;;;;;4980320;28;19933;-80
2022/07/15 07:30:27;;;;;;;;;;;20.30;53.10;;;;;;4977839;28;20436;-79
2022/07/15 07:32:54;;;;;;;;;;;20.30;52.90;;;;;;4982421;28;20038;-79
2022/07/15 07:35:20;;;;;;;;;;;20.30;53.00;;;;;;4978121;28;22027;-78
2022/07/15 07:37:47;;;;;;;;;;;20.30;52.80;;;;;;4978645;28;20682;-79
2022/07/15 07:40:18;;;;;;;;;;;20.30;52.60;;;;;;4978742;28;20627;-79
2022/07/15 07:42:45;;;;;;;;;;;20.40;52.70;;;;;;4980792;28;19934;-79
2022/07/15 07:45:12;;;;;;;;;;;20.40;52.60;;;;;;4976333;28;19930;-79
2022/07/15 07:47:40;;;;;;;;;;;20.40;52.50;;;;;;4981044;28;20004;-79
2022/07/15 07:50:10;;;;;;;;;;;20.40;52.30;;;;;;4978538;28;19930;-79
2022/07/15 07:52:37;;;;;;;;;;;20.50;52.30;;;;;;4978675;28;19934;-80
2022/07/15 07:55:04;;;;;;;;;;;20.50;52.20;;;;;;4973635;28;19934;-80
2022/07/15 07:57:32;;;;;;;;;;;20.50;52.20;;;;;;4979426;28;19976;-80
2022/07/15 07:59:59;;;;;;;;;;;20.50;52.10;;;;;;4980766;28;20029;-77
2022/07/15 08:02:25;;;;;;;;;;;20.50;51.80;;;;;;4980790;28;19936;-78
2022/07/15 08:04:52;;;;;;;;;;;20.50;51.80;;;;;;4973709;28;19929;-78
2022/07/15 08:07:18;;;;;;;;;;;20.60;51.70;;;;;;4984260;28;20349;-77
2022/07/15 08:09:45;;;;;;;;;;;20.60;51.60;;;;;;4982891;28;21179;-77
2022/07/15 08:12:12;;;;;;;;;;;20.60;51.60;;;;;;4980203;28;20778;-78
2022/07/15 08:14:41;;;;;;;;;;;20.70;51.40;;;;;;4983665;28;19957;-79
2022/07/15 08:17:08;;;;;;;;;;;20.70;51.30;;;;;;4980574;28;19965;-78
2022/07/15 08:19:34;;;;;;;;;;;20.70;51.10;;;;;;4978778;28;19937;-78
2022/07/15 08:22:01;;;;;;;;;;;20.70;51.10;;;;;;4977924;28;19930;-76
2022/07/15 08:24:27;;;;;;;;;;;20.80;51.10;;;;;;4983865;28;19930;-77
2022/07/15 08:26:54;;;;;;;;;;;20.80;51.00;;;;;;4979943;28;20096;-78
2022/07/15 08:29:21;;;;;;;;;;;20.80;50.70;;;;;;4981487;28;20457;-79
2022/07/15 08:31:49;;;;;;;;;;;20.80;50.60;;;;;;4978958;28;19934;-80
2022/07/15 08:34:16;;;;;;;;;;;20.90;50.50;;;;;;4981873;28;19926;-78
2022/07/15 08:36:43;;;;;;;;;;;20.90;50.40;;;;;;4983470;28;20025;-77
2022/07/15 08:39:10;;;;;;;;;;;21.00;50.30;;;;;;4981135;28;19940;-78
2022/07/15 08:41:38;;;;;;;;;;;21.00;50.20;;;;;;4984923;28;19926;-76
2022/07/15 08:44:06;;;;;;;;;;;21.00;50.10;;;;;;4981475;28;19926;-78
2022/07/15 08:46:33;;;;;;;;;;;21.00;49.90;;;;;;4977462;28;19934;-78
2022/07/15 08:49:04;;;;;;;;;;;21.10;49.90;;;;;;4979384;28;19941;-77
2022/07/15 08:51:34;;;;;;;;;;;21.10;49.70;;;;;;4978314;28;20398;-77
2022/07/15 08:54:00;;;;;;;;;;;21.20;49.60;;;;;;4982318;28;19988;-81
2022/07/15 08:56:27;;;;;;;;;;;21.10;49.20;;;;;;4982213;28;19930;-77
2022/07/15 08:58:55;;;;;;;;;;;21.20;49.30;;;;;;4984881;28;19941;-77
2022/07/15 09:01:21;;;;;;;;;;;21.20;49.20;;;;;;4983951;28;19961;-78
2022/07/15 09:03:48;;;;;;;;;;;21.30;49.10;;;;;;4980535;28;20537;-78
2022/07/15 09:06:30;;;;;;;;;;;21.30;49.00;;;;;;4980381;28;20676;-77
2022/07/15 09:08:56;;;;;;;;;;;21.30;48.60;;;;;;4982924;28;19937;-78
2022/07/15 09:11:28;;;;;;;;;;;21.40;48.60;;;;;;4984281;28;19930;-79
2022/07/15 09:13:54;;;;;;;;;;;21.40;48.50;;;;;;4979604;28;19929;-78
2022/07/15 09:16:21;;;;;;;;;;;21.40;48.20;;;;;;4978817;28;21535;-79
2022/07/15 09:18:49;;;;;;;;;;;21.50;48.00;;;;;;4983260;28;19934;-79
2022/07/15 09:21:17;;;;;;;;;;;21.50;47.80;;;;;;5152199;22;20731;-81
2022/07/15 09:23:45;;;;;;;;;;;21.60;47.30;;;;;;5000837;28;19930;-81
2022/07/15 09:26:26;;;;;;;;;;;21.60;47.20;;;;;;4991288;28;19929;-81
2022/07/15 09:28:54;;;;;;;;;;;21.70;47.20;;;;;;4992680;28;20282;-81
2022/07/15 09:34:11;;;;;;;;;;;21.80;46.80;;;;;;4991384;28;20437;-79
2022/07/15 09:36:41;;;;;;;;;;;21.80;47.40;;;;;;4990840;28;19933;-82
2022/07/15 09:39:09;;;;;;;;;;;21.90;47.10;;;;;;4991429;28;19936;-79
2022/07/15 09:41:36;;;;;;;;;;;21.90;46.70;;;;;;4998060;28;20678;-79
2022/07/15 09:44:05;;;;;;;;;;;22.00;46.50;;;;;;4992255;28;19929;-79
2022/07/15 09:46:41;;;;;;;;;;;22.00;46.30;;;;;;4986086;28;20742;-79
2022/07/15 09:49:07;;;;;;;;;;;22.10;46.40;;;;;;4979551;28;19936;-80
2022/07/15 09:51:43;;;;;;;;;;;22.10;46.10;;;;;;4986362;28;20673;-79
2022/07/15 09:54:12;;;;;;;;;;;22.20;46.10;;;;;;4984204;28;19940;-79
2022/07/15 09:56:39;;;;;;;;;;;22.20;45.90;;;;;;4982229;28;19944;-79
2022/07/15 09:59:05;;;;;;;;;;;22.30;45.70;;;;;;4985669;28;20156;-80
2022/07/15 10:01:32;;;;;;;;;;;22.40;46.10;;;;;;4984929;28;19930;-80
2022/07/15 10:04:00;;;;;;;;;;;22.50;46.00;;;;;;4985333;28;19934;-80
2022/07/15 10:06:28;;;;;;;;;;;22.50;45.80;;;;;;4985113;28;19933;-79
2022/07/15 10:08:54;;;;;;;;;;;22.50;45.40;;;;;;4990156;28;19934;-79
2022/07/15 10:11:22;;;;;;;;;;;22.60;45.00;;;;;;4997651;28;19933;-79
2022/07/15 10:13:57;;;;;;;;;;;22.70;45.00;;;;;;4993990;28;19929;-80
2022/07/15 10:16:42;;;;;;;;;;;22.80;44.70;;;;;;4991127;28;19929;-79
2022/07/15 10:19:11;;;;;;;;;;;22.80;44.70;;;;;;4998358;28;20146;-79
2022/07/15 10:21:41;;;;;;;;;;;22.90;44.70;;;;;;5002238;28;19929;-78
2022/07/15 10:24:18;;;;;;;;;;;23.00;44.60;;;;;;4996306;28;19941;-79
2022/07/15 10:26:56;;;;;;;;;;;23.10;44.50;;;;;;4992822;28;19936;-80
2022/07/15 10:29:23;;;;;;;;;;;23.10;44.50;;;;;;4993206;28;19929;-80
2022/07/15 10:31:56;;;;;;;;;;;23.20;44.40;;;;;;4991603;28;19939;-80
2022/07/15 10:34:23;;;;;;;;;;;23.30;44.00;;;;;;4991305;28;19929;-81
2022/07/15 10:36:58;;;;;;;;;;;23.40;43.90;;;;;;4991456;28;19961;-80
2022/07/15 10:39:26;;;;;;;;;;;23.40;43.90;;;;;;4988157;28;20360;-81
2022/07/15 10:41:56;;;;;;;;;;;23.50;44.00;;;;;;4990114;28;19942;-81
2022/07/15 10:44:23;;;;;;;;;;;23.60;44.10;;;;;;4993260;28;20388;-81
2022/07/15 10:47:06;;;;;;;;;;;23.70;44.20;;;;;;4989816;28;21284;-81
2022/07/15 10:49:33;;;;;;;;;;;23.70;44.00;;;;;;4998498;28;20370;-80
2022/07/15 10:52:11;;;;;;;;;;;23.90;44.00;;;;;;4991560;28;19930;-79
2022/07/15 10:54:40;;;;;;;;;;;23.90;43.60;;;;;;4997387;28;19929;-79
2022/07/15 10:57:08;;;;;;;;;;;24.00;43.60;;;;;;4990144;28;20044;-81
2022/07/15 10:59:41;;;;;;;;;;;24.00;43.30;;;;;;4993430;28;20512;-80
2022/07/15 11:02:17;;;;;;;;;;;24.10;43.50;;;;;;4987802;28;20664;-81
2022/07/15 11:04:44;;;;;;;;;;;24.10;43.30;;;;;;4993274;28;19930;-80
2022/07/15 11:07:30;;;;;;;;;;;24.20;43.50;;;;;;4991300;28;19935;-81
2022/07/15 11:09:58;;;;;;;;;;;24.30;44.20;;;;;;4987773;28;20824;-80
2022/07/15 11:12:46;;;;;;;;;;;24.30;43.50;;;;;;4981828;28;19941;-83
2022/07/15 11:15:13;;;;;;;;;;;24.40;43.20;;;;;;4993590;28;19937;-82
2022/07/15 11:17:41;;;;;;;;;;;24.50;43.10;;;;;;4992296;28;19940;-80
2022/07/15 11:20:09;;;;;;;;;;;24.60;42.30;;;;;;4991784;28;19930;-81
2022/07/15 11:22:37;;;;;;;;;;;24.60;42.50;;;;;;4996739;28;19929;-81
2022/07/15 11:25:04;;;;;;;;;;;24.70;42.30;;;;;;4995222;28;20017;-82
2022/07/15 11:27:32;;;;;;;;;;;24.70;42.20;;;;;;4994291;28;20393;-83
2022/07/15 11:30:02;;;;;;;;;;;24.80;42.60;;;;;;4998855;28;19929;-81
2022/07/15 11:32:29;;;;;;;;;;;24.90;41.90;;;;;;4995964;28;20485;-81
2022/07/15 11:34:57;;;;;;;;;;;25.00;41.40;;;;;;4998652;28;19965;-80
2022/07/15 11:37:27;;;;;;;;;;;25.10;41.70;;;;;;4997570;28;19940;-81
2022/07/15 11:40:06;;;;;;;;;;;25.10;41.10;;;;;;4986660;28;19930;-80
2022/07/15 11:45:32;;;;;;;;;;;25.20;41.50;;;;;;4983612;28;19940;-77
2022/07/15 11:47:58;;;;;;;;;;;25.30;41.30;;;;;;4983134;28;19929;-77
2022/07/15 11:50:25;;;;;;;;;;;25.40;41.70;;;;;;4981515;28;20500;-78
2022/07/15 11:52:55;;;;;;;;;;;25.40;42.70;;;;;;4984338;28;19929;-78
2022/07/15 11:55:22;;;;;;;;;;;25.50;43.10;;;;;;4988082;28;19929;-77
2022/07/15 11:57:51;;;;;;;;;;;25.50;43.20;;;;;;4985463;28;19936;-78
2022/07/15 12:00:19;;;;;;;;;;;25.60;42.30;;;;;;4987913;28;19934;-77
2022/07/15 12:02:45;;;;;;;;;;;25.70;42.20;;;;;;4994785;28;19937;-77
2022/07/15 12:05:12;;;;;;;;;;;25.70;40.80;;;;;;4994075;28;19937;-78
2022/07/15 12:07:42;;;;;;;;;;;25.80;41.20;;;;;;4992495;28;19930;-77
2022/07/15 12:10:09;;;;;;;;;;;25.80;41.90;;;;;;4995376;28;19956;-78
2022/07/15 12:12:40;;;;;;;;;;;25.90;42.00;;;;;;4996711;28;19934;-78
2022/07/15 12:15:09;;;;;;;;;;;25.90;41.80;;;;;;4998419;28;19941;-78
2022/07/15 12:17:36;;;;;;;;;;;26.00;40.90;;;;;;4995805;28;20509;-77
2022/07/15 12:20:04;;;;;;;;;;;26.10;41.70;;;;;;4997763;28;19933;-80
2022/07/15 12:22:30;;;;;;;;;;;26.10;42.00;;;;;;4995927;28;19933;-79
2022/07/15 12:24:57;;;;;;;;;;;26.20;42.10;;;;;;4996907;28;21220;-79
2022/07/15 12:27:32;;;;;;;;;;;26.30;41.50;;;;;;4998572;28;20888;-79
2022/07/15 12:30:01;;;;;;;;;;;26.30;41.40;;;;;;4996719;28;19940;-78
2022/07/15 12:32:29;;;;;;;;;;;26.40;40.60;;;;;;4996510;28;19981;-77
2022/07/15 12:34:57;;;;;;;;;;;26.40;41.30;;;;;;5001457;28;19937;-79
2022/07/15 12:37:24;;;;;;;;;;;26.40;41.30;;;;;;4995784;28;19930;-78
2022/07/15 12:39:54;;;;;;;;;;;26.50;41.40;;;;;;4993055;28;19944;-78
2022/07/15 12:42:20;;;;;;;;;;;26.60;41.90;;;;;;4995510;28;19933;-79
2022/07/15 12:44:47;;;;;;;;;;;26.60;42.00;;;;;;4997181;28;19929;-77
2022/07/15 12:47:16;;;;;;;;;;;26.60;40.60;;;;;;4990490;28;19940;-77
2022/07/15 12:49:46;;;;;;;;;;;26.70;40.70;;;;;;4997051;28;19939;-77
2022/07/15 12:52:14;;;;;;;;;;;26.70;40.90;;;;;;4995578;28;19933;-79
2022/07/15 12:54:41;;;;;;;;;;;26.80;41.00;;;;;;4996067;28;19937;-78
2022/07/15 12:57:18;;;;;;;;;;;26.80;40.10;;;;;;4998495;28;19934;-77
2022/07/15 12:59:52;;;;;;;;;;;26.80;40.50;;;;;;4998495;28;19929;-76
2022/07/15 13:02:18;;;;;;;;;;;26.90;40.10;;;;;;4998521;28;19941;-78
2022/07/15 13:04:47;;;;;;;;;;;27.00;39.90;;;;;;4995981;28;19929;-77
2022/07/15 13:07:13;;;;;;;;;;;27.00;39.90;;;;;;4992815;28;20560;-77
2022/07/15 13:09:40;;;;;;;;;;;27.00;40.30;;;;;;4995336;28;19929;-78
2022/07/15 13:12:08;;;;;;;;;;;27.10;39.50;;;;;;5002838;28;20811;-79
2022/07/15 13:14:35;;;;;;;;;;;27.10;39.20;;;;;;4999410;28;19933;-78
2022/07/15 13:17:01;;;;;;;;;;;27.10;39.90;;;;;;4995367;28;20473;-79
2022/07/15 13:19:28;;;;;;;;;;;27.20;39.60;;;;;;4998708;28;19933;-79
2022/07/15 13:21:56;;;;;;;;;;;27.20;39.30;;;;;;4993744;28;20703;-77
2022/07/15 13:24:22;;;;;;;;;;;27.20;39.90;;;;;;4999282;28;19930;-79
2022/07/15 13:26:49;;;;;;;;;;;27.30;40.10;;;;;;5000812;28;19930;-78
2022/07/15 13:29:16;;;;;;;;;;;27.30;40.60;;;;;;4995451;28;19941;-77
2022/07/15 13:31:42;;;;;;;;;;;27.40;40.30;;;;;;4993228;28;19941;-79
2022/07/15 13:34:09;;;;;;;;;;;27.40;39.90;;;;;;4992906;28;19929;-80
2022/07/15 13:36:36;;;;;;;;;;;27.40;39.70;;;;;;4998806;28;20013;-78
2022/07/15 13:39:04;;;;;;;;;;;27.50;40.10;;;;;;4992921;28;19933;-79
2022/07/15 13:41:31;;;;;;;;;;;27.60;40.10;;;;;;4995438;28;20365;-79
2022/07/15 13:43:57;;;;;;;;;;;27.60;40.40;;;;;;4992690;28;19933;-78
2022/07/15 13:46:24;;;;;;;;;;;27.70;40.40;;;;;;4990995;28;19936;-79
2022/07/15 13:48:51;;;;;;;;;;;27.80;40.50;;;;;;4997749;28;20641;-79
2022/07/15 13:51:25;;;;;;;;;;;27.70;39.80;;;;;;4994906;28;19940;-80
2022/07/15 13:53:52;;;;;;;;;;;27.80;39.10;;;;;;4999522;28;19933;-78
2022/07/15 13:56:21;;;;;;;;;;;27.80;39.30;;;;;;4992633;28;19934;-78
2022/07/15 13:58:48;;;;;;;;;;;27.90;38.70;;;;;;4986902;28;19941;-77
2022/07/15 14:01:15;;;;;;;;;;;27.90;39.50;;;;;;4985696;28;20025;-77
2022/07/15 14:03:41;;;;;;;;;;;28.00;39.70;;;;;;4981207;28;19965;-78
2022/07/15 14:06:08;;;;;;;;;;;28.10;39.30;;;;;;4983481;28;19934;-78
2022/07/15 14:08:35;;;;;;;;;;;28.10;38.70;;;;;;4981869;28;20983;-78
2022/07/15 14:11:02;;;;;;;;;;;28.20;37.80;;;;;;4988182;28;19937;-77
2022/07/15 14:13:30;;;;;;;;;;;28.20;38.90;;;;;;4983147;28;19933;-78
2022/07/15 14:15:57;;;;;;;;;;;28.20;39.40;;;;;;4989741;28;19933;-79
2022/07/15 14:18:42;;;;;;;;;;;28.30;38.80;;;;;;4982452;28;20015;-80
2022/07/15 14:21:09;;;;;;;;;;;28.30;38.30;;;;;;4985228;28;20410;-79
2022/07/15 14:23:35;;;;;;;;;;;28.40;38.40;;;;;;4985756;28;19933;-77
2022/07/15 14:26:02;;;;;;;;;;;28.50;37.90;;;;;;4984356;28;19933;-80
2022/07/15 14:28:30;;;;;;;;;;;28.50;38.10;;;;;;4985702;28;19930;-79